createdAt,value
2022-10-07T00:03:41.943Z,101448.34
2022-10-07T00:08:46.989Z,101455.59
2022-10-07T00:13:53.125Z,101444.78
2022-10-07T00:18:57.982Z,101446.84
2022-10-07T00:24:00.620Z,101447.41
2022-10-07T00:29:03.929Z,101401.06
2022-10-07T00:34:06.266Z,101403.97
2022-10-07T00:39:11.966Z,101389.63
2022-10-07T00:44:32.399Z,101423.47
2022-10-07T00:49:44.845Z,101408.03
2022-10-07T00:54:51.595Z,101406.81
2022-10-07T00:59:55.955Z,101429.59
2022-10-07T01:05:01.970Z,101412.25
2022-10-07T01:10:05.725Z,101410.34
2022-10-07T01:15:19.686Z,101395.59
2022-10-07T01:20:53.631Z,101421.94
2022-10-07T01:26:23.579Z,101427.03
2022-10-07T01:31:33.599Z,101391.38
2022-10-07T01:36:37.934Z,101422.25
2022-10-07T01:41:41.826Z,101391.88
2022-10-07T01:46:44.421Z,101407.09
2022-10-07T01:51:52.411Z,101403.09
2022-10-07T01:57:15.129Z,101411.81
2022-10-07T02:02:52.255Z,101407.47
2022-10-07T02:08:15.408Z,101387.22
2022-10-07T02:13:33.999Z,101401.44
2022-10-07T02:18:38.406Z,101413.19
2022-10-07T02:23:44.499Z,101418.22
2022-10-07T02:28:51.620Z,101427.72
2022-10-07T02:33:57.546Z,101398.22
2022-10-07T02:39:01.783Z,101377.75
2022-10-07T02:44:15.103Z,101409.50
2022-10-07T02:49:21.293Z,101419.72
2022-10-07T02:54:29.614Z,101421.25
2022-10-07T02:59:34.070Z,101433.22
2022-10-07T03:04:36.300Z,101423.34
2022-10-07T03:09:38.803Z,101420.13
2022-10-07T03:14:41.411Z,101412.88
2022-10-07T03:19:43.894Z,101417.44
2022-10-07T03:24:46.068Z,101424.31
2022-10-07T03:29:49.407Z,101418.09
2022-10-07T03:34:53.172Z,101391.59
2022-10-07T03:39:55.420Z,101419.59
2022-10-07T03:44:57.824Z,101448.81
2022-10-07T03:50:00.026Z,101429.00
2022-10-07T03:55:02.496Z,101436.38
2022-10-07T04:00:04.948Z,101433.19
2022-10-07T04:05:07.503Z,101456.88
2022-10-07T04:10:11.436Z,101448.81
2022-10-07T04:15:14.261Z,101432.34
2022-10-07T04:20:17.827Z,101451.97
2022-10-07T04:25:35.570Z,101428.38
2022-10-07T04:30:43.989Z,101453.56
2022-10-07T04:35:46.380Z,101445.38
2022-10-07T04:40:53.427Z,101456.00
2022-10-07T04:46:07.974Z,101455.19
2022-10-07T04:51:11.004Z,101461.22
2022-10-07T04:56:13.375Z,101467.75
2022-10-07T05:01:15.663Z,101446.59
2022-10-07T05:06:18.933Z,101446.75
2022-10-07T05:11:21.347Z,101461.72
2022-10-07T05:16:23.729Z,101452.31
2022-10-07T05:21:26.006Z,101441.38
2022-10-07T05:26:28.395Z,101469.69
2022-10-07T05:31:30.823Z,101491.47
2022-10-07T05:36:33.059Z,101469.59
2022-10-07T05:41:44.999Z,101473.41
2022-10-07T05:46:48.029Z,101485.06
2022-10-07T05:51:51.882Z,101479.66
2022-10-07T05:56:54.383Z,101484.56
2022-10-07T06:02:00.743Z,101488.69
2022-10-07T06:07:04.511Z,101501.66
2022-10-07T06:12:25.236Z,101488.47
2022-10-07T06:17:27.568Z,101486.00
2022-10-07T06:22:29.817Z,101503.53
2022-10-07T06:27:32.025Z,101480.53
2022-10-07T06:32:34.238Z,101485.75
2022-10-07T06:37:36.496Z,101506.78
2022-10-07T06:42:38.865Z,101507.41
2022-10-07T06:47:41.291Z,101482.56
2022-10-07T06:52:44.256Z,101499.19
2022-10-07T06:57:46.700Z,101501.69
2022-10-07T07:02:49.113Z,101484.13
2022-10-07T07:07:51.466Z,101505.22
2022-10-07T07:12:54.650Z,101487.84
2022-10-07T07:17:56.947Z,101494.22
2022-10-07T07:22:59.316Z,101491.16
2022-10-07T07:28:02.438Z,101496.91
2022-10-07T07:33:05.744Z,101500.56
2022-10-07T07:38:09.109Z,101488.28
2022-10-07T07:43:11.354Z,101486.06
2022-10-07T07:48:13.998Z,101484.84
2022-10-07T07:53:16.326Z,101473.38
2022-10-07T07:58:19.156Z,101480.28
2022-10-07T08:03:21.549Z,101476.09
2022-10-07T08:08:23.956Z,101471.69
2022-10-07T08:13:26.280Z,101463.91
2022-10-07T08:18:28.567Z,101467.59
2022-10-07T08:23:31.323Z,101471.28
2022-10-07T08:28:35.528Z,101447.66
2022-10-07T08:33:43.336Z,101445.69
2022-10-07T08:38:50.035Z,101453.06
2022-10-07T08:43:52.819Z,101431.09
2022-10-07T08:49:05.123Z,101439.88
2022-10-07T08:54:13.055Z,101430.91
2022-10-07T08:59:27.761Z,101436.53
2022-10-07T09:04:44.867Z,101439.81
2022-10-07T09:09:54.330Z,101436.69
2022-10-07T09:14:59.657Z,101402.34
2022-10-07T09:20:19.989Z,101413.63
2022-10-07T09:25:27.554Z,101419.00
2022-10-07T09:30:29.958Z,101392.88
2022-10-07T09:35:32.299Z,101403.34
2022-10-07T09:40:59.078Z,101387.28
2022-10-07T09:46:02.190Z,101397.56
2022-10-07T09:51:27.362Z,101388.34
2022-10-07T09:56:42.042Z,101375.06
2022-10-07T10:01:56.119Z,101376.63
2022-10-07T10:07:06.651Z,101368.66
2022-10-07T10:12:15.401Z,101349.31
2022-10-07T10:17:28.791Z,101361.66
2022-10-07T10:22:31.246Z,101349.44
2022-10-07T10:28:00.141Z,101350.31
2022-10-07T10:33:15.212Z,101338.69
2022-10-07T10:38:26.007Z,101340.53
2022-10-07T10:43:35.630Z,101327.41
2022-10-07T10:48:44.775Z,101307.47
2022-10-07T10:54:15.085Z,101291.06
2022-10-07T10:59:41.409Z,101296.53
2022-10-07T11:04:50.538Z,101299.13
2022-10-07T11:10:02.030Z,101282.88
2022-10-07T11:15:21.949Z,101278.16
2022-10-07T11:20:41.107Z,101267.72
2022-10-07T11:26:03.362Z,101242.94
2022-10-07T11:31:24.118Z,101253.31
2022-10-07T11:36:44.335Z,101244.06
2022-10-07T11:41:58.607Z,101236.91
2022-10-07T11:47:04.594Z,101229.41
2022-10-07T11:52:11.455Z,101212.31
2022-10-07T11:57:24.595Z,101195.31
2022-10-07T12:02:29.932Z,101217.31
2022-10-07T12:07:41.208Z,101188.78
2022-10-07T12:12:45.003Z,101209.44
2022-10-07T12:18:11.002Z,101199.63
2022-10-07T12:23:28.790Z,101200.00
2022-10-07T12:28:40.539Z,101190.19
2022-10-07T12:33:45.816Z,101189.34
2022-10-07T12:38:57.216Z,101178.00
2022-10-07T12:44:11.206Z,101133.78
2022-10-07T12:49:21.108Z,101164.97
2022-10-07T12:54:44.244Z,101171.94
2022-10-07T13:00:14.255Z,101174.69
2022-10-07T13:05:53.770Z,101171.50
2022-10-07T13:11:07.954Z,101161.97
2022-10-07T13:16:38.981Z,101149.91
2022-10-07T13:22:05.717Z,101145.06
2022-10-07T13:27:10.995Z,101128.84
2022-10-07T13:32:22.512Z,101127.56
2022-10-07T13:37:34.312Z,101130.03
2022-10-07T13:42:36.764Z,101132.25
2022-10-07T13:47:40.102Z,101126.78
2022-10-07T13:52:47.403Z,101123.75
2022-10-07T13:57:49.984Z,101104.47
2022-10-07T14:02:52.842Z,101119.28
2022-10-07T14:08:16.754Z,101116.72
2022-10-07T14:13:19.289Z,101124.41
2022-10-07T14:18:21.699Z,101121.56
2022-10-07T14:23:31.610Z,101113.06
2022-10-07T14:28:36.061Z,101122.59
2022-10-07T14:34:02.022Z,101115.69
2022-10-07T14:39:24.556Z,101097.56
2022-10-07T14:44:27.055Z,101103.88
2022-10-07T14:49:30.377Z,101094.00
2022-10-07T14:54:34.666Z,101119.25
2022-10-07T14:59:37.683Z,101099.19
2022-10-07T15:04:40.612Z,101111.66
2022-10-07T15:09:44.542Z,101109.22
2022-10-07T15:14:46.906Z,101104.88
2022-10-07T15:19:51.689Z,101122.22
2022-10-07T15:24:54.205Z,101125.63
2022-10-07T15:29:56.508Z,101114.91
2022-10-07T15:34:59.354Z,101116.44
2022-10-07T15:40:01.625Z,101118.41
2022-10-07T15:45:04.086Z,101102.09
2022-10-07T15:50:07.876Z,101093.03
2022-10-07T15:55:10.262Z,101104.31
2022-10-07T16:00:13.099Z,101104.47
2022-10-07T16:05:15.397Z,101111.81
2022-10-07T16:10:17.929Z,101093.84
2022-10-07T16:15:20.592Z,101120.78
2022-10-07T16:20:22.764Z,101107.22
2022-10-07T16:25:25.002Z,101141.25
2022-10-07T16:30:42.215Z,101139.56
2022-10-07T16:35:44.853Z,101149.25
2022-10-07T16:40:54.848Z,101164.06
2022-10-07T16:46:02.917Z,101162.84
2022-10-07T16:51:08.584Z,101135.09
2022-10-07T16:56:11.279Z,101165.72
2022-10-07T17:01:16.769Z,101168.31
2022-10-07T17:06:21.727Z,101166.81
2022-10-07T17:11:31.117Z,101168.94
2022-10-07T17:16:38.185Z,101169.78
2022-10-07T17:21:42.966Z,101190.97
2022-10-07T17:26:46.601Z,101203.00
2022-10-07T17:31:51.038Z,101191.13
2022-10-07T17:36:54.468Z,101161.88
2022-10-07T17:41:57.924Z,101206.63
2022-10-07T17:47:04.008Z,101200.34
2022-10-07T17:52:06.229Z,101201.34
2022-10-07T17:57:08.640Z,101217.44
2022-10-07T18:02:11.363Z,101219.44
2022-10-07T18:07:13.830Z,101232.25
2022-10-07T18:12:34.887Z,101229.91
2022-10-07T18:17:37.379Z,101222.63
2022-10-07T18:22:39.623Z,101222.53
2022-10-07T18:27:41.844Z,101224.69
2022-10-07T18:32:44.083Z,101241.22
2022-10-07T18:37:46.693Z,101229.88
2022-10-07T18:42:49.125Z,101247.22
2022-10-07T18:47:51.629Z,101257.72
2022-10-07T18:52:54.707Z,101225.94
2022-10-07T18:57:57.109Z,101237.22
2022-10-07T19:02:59.468Z,101246.25
2022-10-07T19:08:01.907Z,101258.19
2022-10-07T19:13:22.402Z,101245.97
2022-10-07T19:18:25.981Z,101221.69
2022-10-07T19:23:29.558Z,101263.56
2022-10-07T19:28:32.282Z,101258.25
2022-10-07T19:33:35.013Z,101255.13
2022-10-07T19:38:45.126Z,101258.91
2022-10-07T19:43:48.758Z,101267.22
2022-10-07T19:48:51.544Z,101255.81
2022-10-07T19:53:55.191Z,101246.84
2022-10-07T19:58:59.656Z,101258.75
2022-10-07T20:04:04.829Z,101277.09
2022-10-07T20:09:09.422Z,101263.13
2022-10-07T20:14:11.934Z,101269.81
2022-10-07T20:19:18.966Z,101271.88
2022-10-07T20:24:21.494Z,101274.59
2022-10-07T20:29:25.510Z,101280.66
2022-10-07T20:34:28.231Z,101272.75
2022-10-07T20:39:49.820Z,101260.19
2022-10-07T20:44:53.651Z,101277.88
2022-10-07T20:49:58.200Z,101271.84
2022-10-07T20:55:00.653Z,101245.72
2022-10-07T21:00:03.110Z,101268.06
2022-10-07T21:05:06.994Z,101261.00
2022-10-07T21:10:09.260Z,101251.81
2022-10-07T21:15:11.870Z,101233.66
2022-10-07T21:20:14.280Z,101242.59
2022-10-07T21:25:16.688Z,101238.00
2022-10-07T21:30:19.243Z,101237.38
2022-10-07T21:35:21.434Z,101248.66
2022-10-07T21:40:23.923Z,101264.69
2022-10-07T21:45:26.091Z,101254.47
2022-10-07T21:50:28.326Z,101243.41
2022-10-07T21:55:30.843Z,101246.50
2022-10-07T22:00:36.556Z,101241.25
2022-10-07T22:05:40.302Z,101227.84
2022-10-07T22:10:42.732Z,101250.09
2022-10-07T22:15:45.646Z,101214.63
2022-10-07T22:20:47.935Z,101228.84
2022-10-07T22:25:51.812Z,101231.53
2022-10-07T22:30:54.062Z,101212.28
2022-10-07T22:35:56.324Z,101221.84
2022-10-07T22:41:06.699Z,101214.94
2022-10-07T22:46:11.140Z,101217.81
2022-10-07T22:51:15.387Z,101222.16
2022-10-07T22:56:18.997Z,101208.31
2022-10-07T23:01:22.440Z,101224.13
2022-10-07T23:06:25.123Z,101228.16
2022-10-07T23:11:28.748Z,101224.94
2022-10-07T23:16:34.431Z,101224.56
2022-10-07T23:21:37.588Z,101216.50
2022-10-07T23:26:40.075Z,101197.19
2022-10-07T23:31:42.509Z,101207.56
2022-10-07T23:36:45.021Z,101200.31
2022-10-07T23:41:47.427Z,101203.94
2022-10-07T23:46:51.013Z,101193.81
2022-10-07T23:51:53.756Z,101205.41
2022-10-07T23:56:56.110Z,101191.59
